sensor_id;sensor_type;location;lat;lon;timestamp;pressure;altitude;pressure_sealevel;temperature;humidity
62725;BME280;49026;52.600;4.694;2023-01-27T00:02:10;102698.66;;;5.46;89.57
62725;BME280;49026;52.600;4.694;2023-01-27T00:04:39;102703.03;;;5.47;90.01
62725;BME280;49026;52.600;4.694;2023-01-27T00:07:05;102704.78;;;5.47;90.40
62725;BME280;49026;52.600;4.694;2023-01-27T00:12:37;102700.41;;;5.47;89.30
62725;BME280;49026;52.600;4.694;2023-01-27T00:15:28;102696.94;;;5.45;88.40
62725;BME280;49026;52.600;4.694;2023-01-27T00:17:54;102698.66;;;5.43;87.95
62725;BME280;49026;52.600;4.694;2023-01-27T00:20:20;102697.78;;;5.44;88.00
62725;BME280;49026;52.600;4.694;2023-01-27T00:23:05;102684.72;;;5.44;87.75
62725;BME280;49026;52.600;4.694;2023-01-27T00:25:49;102686.50;;;5.45;88.87
62725;BME280;49026;52.600;4.694;2023-01-27T00:28:20;102686.47;;;5.42;89.14
62725;BME280;49026;52.600;4.694;2023-01-27T00:30:58;102691.66;;;5.42;87.95
62725;BME280;49026;52.600;4.694;2023-01-27T00:33:27;102690.81;;;5.42;87.64
62725;BME280;49026;52.600;4.694;2023-01-27T00:36:03;102695.13;;;5.41;87.16
62725;BME280;49026;52.600;4.694;2023-01-27T00:38:39;102694.28;;;5.42;87.81
62725;BME280;49026;52.600;4.694;2023-01-27T00:41:07;102695.13;;;5.41;88.19
62725;BME280;49026;52.600;4.694;2023-01-27T00:43:51;102703.81;;;5.40;87.23
62725;BME280;49026;52.600;4.694;2023-01-27T00:46:18;102714.25;;;5.40;87.64
62725;BME280;49026;52.600;4.694;2023-01-27T00:48:45;102711.63;;;5.38;88.47
62725;BME280;49026;52.600;4.694;2023-01-27T00:51:13;102721.16;;;5.35;88.32
62725;BME280;49026;52.600;4.694;2023-01-27T00:53:39;102711.59;;;5.35;88.39
62725;BME280;49026;52.600;4.694;2023-01-27T00:56:10;102708.97;;;5.34;88.41
62725;BME280;49026;52.600;4.694;2023-01-27T00:58:36;102708.97;;;5.34;88.67
62725;BME280;49026;52.600;4.694;2023-01-27T01:01:05;102710.66;;;5.30;88.37
62725;BME280;49026;52.600;4.694;2023-01-27T01:03:32;102716.72;;;5.29;88.24
62725;BME280;49026;52.600;4.694;2023-01-27T01:06:07;102708.88;;;5.28;87.47
62725;BME280;49026;52.600;4.694;2023-01-27T01:08:43;102721.06;;;5.29;88.23
62725;BME280;49026;52.600;4.694;2023-01-27T01:11:20;102717.56;;;5.27;85.19
62725;BME280;49026;52.600;4.694;2023-01-27T01:13:47;102723.59;;;5.24;85.03
62725;BME280;49026;52.600;4.694;2023-01-27T01:16:19;102723.63;;;5.26;85.58
62725;BME280;49026;52.600;4.694;2023-01-27T01:18:48;102727.13;;;5.25;84.67
62725;BME280;49026;52.600;4.694;2023-01-27T01:21:14;102719.25;;;5.22;84.45
62725;BME280;49026;52.600;4.694;2023-01-27T01:23:41;102723.56;;;5.21;84.60
62725;BME280;49026;52.600;4.694;2023-01-27T01:26:09;102729.69;;;5.22;85.59
62725;BME280;49026;52.600;4.694;2023-01-27T01:28:38;102728.75;;;5.18;84.16
62725;BME280;49026;52.600;4.694;2023-01-27T01:31:12;102733.09;;;5.17;84.47
62725;BME280;49026;52.600;4.694;2023-01-27T01:33:37;102742.63;;;5.15;84.38
62725;BME280;49026;52.600;4.694;2023-01-27T01:36:14;102739.97;;;5.12;84.71
62725;BME280;49026;52.600;4.694;2023-01-27T01:38:41;102740.81;;;5.10;84.42
62725;BME280;49026;52.600;4.694;2023-01-27T01:41:12;102753.88;;;5.11;86.31
62725;BME280;49026;52.600;4.694;2023-01-27T01:43:39;102745.13;;;5.09;87.01
62725;BME280;49026;52.600;4.694;2023-01-27T01:46:05;102753.78;;;5.05;87.30
62725;BME280;49026;52.600;4.694;2023-01-27T01:51:10;102745.84;;;4.97;87.05
62725;BME280;49026;52.600;4.694;2023-01-27T01:54:07;102757.03;;;4.89;85.14
62725;BME280;49026;52.600;4.694;2023-01-27T01:56:37;102758.75;;;4.87;85.29
62725;BME280;49026;52.600;4.694;2023-01-27T01:59:19;102754.28;;;4.81;86.37
62725;BME280;49026;52.600;4.694;2023-01-27T02:01:49;102755.03;;;4.71;85.65
62725;BME280;49026;52.600;4.694;2023-01-27T02:04:21;102746.25;;;4.64;85.34
62725;BME280;49026;52.600;4.694;2023-01-27T02:07:04;102750.44;;;4.54;84.27
62725;BME280;49026;52.600;4.694;2023-01-27T02:09:35;102759.03;;;4.49;85.09
62725;BME280;49026;52.600;4.694;2023-01-27T02:12:05;102761.56;;;4.45;85.10
62725;BME280;49026;52.600;4.694;2023-01-27T02:14:34;102761.53;;;4.42;85.02
62725;BME280;49026;52.600;4.694;2023-01-27T02:17:06;102760.66;;;4.42;85.31
62725;BME280;49026;52.600;4.694;2023-01-27T02:22:28;102751.91;;;4.37;84.87
62725;BME280;49026;52.600;4.694;2023-01-27T02:25:05;102763.19;;;4.37;85.55
62725;BME280;49026;52.600;4.694;2023-01-27T02:27:35;102764.88;;;4.35;86.09
62725;BME280;49026;52.600;4.694;2023-01-27T02:30:00;102766.59;;;4.33;86.17
62725;BME280;49026;52.600;4.694;2023-01-27T02:32:26;102762.19;;;4.31;85.46
62725;BME280;49026;52.600;4.694;2023-01-27T02:34:54;102775.19;;;4.29;85.49
62725;BME280;49026;52.600;4.694;2023-01-27T02:37:20;102785.56;;;4.26;84.77
62725;BME280;49026;52.600;4.694;2023-01-27T02:39:51;102773.28;;;4.19;84.41
62725;BME280;49026;52.600;4.694;2023-01-27T02:42:24;102761.06;;;4.13;84.66
62725;BME280;49026;52.600;4.694;2023-01-27T02:44:52;102773.00;;;4.03;84.05
62725;BME280;49026;52.600;4.694;2023-01-27T02:47:21;102778.03;;;3.94;83.12
62725;BME280;49026;52.600;4.694;2023-01-27T02:49:47;102781.38;;;3.87;82.89
62725;BME280;49026;52.600;4.694;2023-01-27T02:52:13;102789.16;;;3.85;83.12
62725;BME280;49026;52.600;4.694;2023-01-27T02:54:44;102787.34;;;3.81;83.16
62725;BME280;49026;52.600;4.694;2023-01-27T02:57:09;102777.75;;;3.79;82.34
62725;BME280;49026;52.600;4.694;2023-01-27T02:59:37;102777.75;;;3.79;82.85
62725;BME280;49026;52.600;4.694;2023-01-27T03:02:03;102779.50;;;3.78;82.68
62725;BME280;49026;52.600;4.694;2023-01-27T03:04:32;102780.31;;;3.77;82.89
62725;BME280;49026;52.600;4.694;2023-01-27T03:07:00;102786.44;;;3.78;83.47
62725;BME280;49026;52.600;4.694;2023-01-27T03:09:28;102789.81;;;3.75;82.53
62725;BME280;49026;52.600;4.694;2023-01-27T03:12:00;102791.59;;;3.76;83.35
62725;BME280;49026;52.600;4.694;2023-01-27T03:14:47;102795.84;;;3.74;82.17
62725;BME280;49026;52.600;4.694;2023-01-27T03:17:42;102801.06;;;3.74;83.62
62725;BME280;49026;52.600;4.694;2023-01-27T03:20:26;102801.03;;;3.71;82.20
62725;BME280;49026;52.600;4.694;2023-01-27T03:22:55;102800.13;;;3.70;81.72
62725;BME280;49026;52.600;4.694;2023-01-27T03:25:20;102797.56;;;3.72;81.21
62725;BME280;49026;52.600;4.694;2023-01-27T03:27:58;102802.78;;;3.74;81.20
62725;BME280;49026;52.600;4.694;2023-01-27T03:30:27;102808.00;;;3.74;81.75
62725;BME280;49026;52.600;4.694;2023-01-27T03:32:56;102814.91;;;3.71;80.50
62725;BME280;49026;52.600;4.694;2023-01-27T03:35:31;102820.13;;;3.73;81.30
62725;BME280;49026;52.600;4.694;2023-01-27T03:38:11;102825.34;;;3.73;80.74
62725;BME280;49026;52.600;4.694;2023-01-27T03:40:56;102837.47;;;3.74;80.97
62725;BME280;49026;52.600;4.694;2023-01-27T03:43:46;102830.53;;;3.73;80.89
62725;BME280;49026;52.600;4.694;2023-01-27T03:46:30;102827.06;;;3.74;81.31
62725;BME280;49026;52.600;4.694;2023-01-27T03:48:58;102827.97;;;3.75;81.57
62725;BME280;49026;52.600;4.694;2023-01-27T03:51:39;102828.84;;;3.75;81.85
62725;BME280;49026;52.600;4.694;2023-01-27T03:54:17;102834.88;;;3.73;81.52
62725;BME280;49026;52.600;4.694;2023-01-27T03:56:50;102819.25;;;3.73;81.96
62725;BME280;49026;52.600;4.694;2023-01-27T03:59:19;102837.47;;;3.74;80.64
62725;BME280;49026;52.600;4.694;2023-01-27T04:01:49;102839.22;;;3.75;80.75
62725;BME280;49026;52.600;4.694;2023-01-27T04:04:38;102841.88;;;3.77;80.66
62725;BME280;49026;52.600;4.694;2023-01-27T04:07:22;102846.13;;;3.73;79.47
62725;BME280;49026;52.600;4.694;2023-01-27T04:09:53;102841.81;;;3.74;80.66
62725;BME280;49026;52.600;4.694;2023-01-27T04:12:19;102845.25;;;3.73;81.18
62725;BME280;49026;52.600;4.694;2023-01-27T04:14:45;102840.91;;;3.71;80.74
62725;BME280;49026;52.600;4.694;2023-01-27T04:17:13;102847.88;;;3.73;80.86
62725;BME280;49026;52.600;4.694;2023-01-27T04:19:39;102839.13;;;3.70;81.18
62725;BME280;49026;52.600;4.694;2023-01-27T04:22:05;102850.44;;;3.71;81.60
62725;BME280;49026;52.600;4.694;2023-01-27T04:24:31;102850.41;;;3.69;81.30
62725;BME280;49026;52.600;4.694;2023-01-27T04:26:59;102851.22;;;3.68;82.07
62725;BME280;49026;52.600;4.694;2023-01-27T04:29:27;102848.56;;;3.65;81.02
62725;BME280;49026;52.600;4.694;2023-01-27T04:31:54;102856.41;;;3.67;81.52
62725;BME280;49026;52.600;4.694;2023-01-27T04:34:31;102853.84;;;3.68;81.81
62725;BME280;49026;52.600;4.694;2023-01-27T04:37:08;102854.66;;;3.67;81.88
62725;BME280;49026;52.600;4.694;2023-01-27T04:39:34;102858.16;;;3.68;82.29
62725;BME280;49026;52.600;4.694;2023-01-27T04:42:13;102863.41;;;3.69;82.79
62725;BME280;49026;52.600;4.694;2023-01-27T04:44:39;102863.38;;;3.68;83.46
62725;BME280;49026;52.600;4.694;2023-01-27T04:47:08;102861.66;;;3.70;83.97
62725;BME280;49026;52.600;4.694;2023-01-27T04:49:33;102855.53;;;3.66;83.99
62725;BME280;49026;52.600;4.694;2023-01-27T04:51:59;102858.97;;;3.65;83.59
62725;BME280;49026;52.600;4.694;2023-01-27T04:54:24;102858.06;;;3.63;83.90
62725;BME280;49026;52.600;4.694;2023-01-27T04:56:56;102859.78;;;3.63;83.42
62725;BME280;49026;52.600;4.694;2023-01-27T04:59:22;102863.22;;;3.62;83.72
62725;BME280;49026;52.600;4.694;2023-01-27T05:01:48;102852.78;;;3.60;84.22
62725;BME280;49026;52.600;4.694;2023-01-27T05:04:14;102856.97;;;3.53;83.34
62725;BME280;49026;52.600;4.694;2023-01-27T05:06:43;102861.34;;;3.55;83.44
62725;BME280;49026;52.600;4.694;2023-01-27T05:09:08;102861.34;;;3.55;82.20
62725;BME280;49026;52.600;4.694;2023-01-27T05:11:34;102866.50;;;3.53;81.24
62725;BME280;49026;52.600;4.694;2023-01-27T05:13:59;102851.75;;;3.52;81.96
62725;BME280;49026;52.600;4.694;2023-01-27T05:16:25;102862.06;;;3.49;80.36
62725;BME280;49026;52.600;4.694;2023-01-27T05:18:52;102867.34;;;3.52;80.62
62725;BME280;49026;52.600;4.694;2023-01-27T05:21:25;102876.00;;;3.51;81.54
62725;BME280;49026;52.600;4.694;2023-01-27T05:23:55;102869.03;;;3.50;80.93
62725;BME280;49026;52.600;4.694;2023-01-27T05:26:23;102866.34;;;3.45;80.69
62725;BME280;49026;52.600;4.694;2023-01-27T05:28:50;102862.91;;;3.46;79.89
62725;BME280;49026;52.600;4.694;2023-01-27T05:31:16;102869.84;;;3.46;80.96
62725;BME280;49026;52.600;4.694;2023-01-27T05:33:43;102875.78;;;3.42;81.15
62725;BME280;49026;52.600;4.694;2023-01-27T05:36:12;102876.63;;;3.41;82.21
62725;BME280;49026;52.600;4.694;2023-01-27T05:38:38;102876.41;;;3.30;80.59
62725;BME280;49026;52.600;4.694;2023-01-27T05:41:05;102880.66;;;3.26;80.54
62725;BME280;49026;52.600;4.694;2023-01-27T05:43:33;102874.34;;;3.17;81.21
62725;BME280;49026;52.600;4.694;2023-01-27T05:46:06;102890.63;;;3.08;82.11
62725;BME280;49026;52.600;4.694;2023-01-27T05:48:36;102893.72;;;2.93;82.16
62725;BME280;49026;52.600;4.694;2023-01-27T05:51:03;102903.81;;;2.82;82.48
62725;BME280;49026;52.600;4.694;2023-01-27T05:53:29;102901.84;;;2.72;82.11
62725;BME280;49026;52.600;4.694;2023-01-27T05:55:54;102891.31;;;2.66;82.61
62725;BME280;49026;52.600;4.694;2023-01-27T05:58:20;102900.63;;;2.57;83.28
62725;BME280;49026;52.600;4.694;2023-01-27T06:00:46;102903.13;;;2.54;82.61
62725;BME280;49026;52.600;4.694;2023-01-27T06:03:12;102907.41;;;2.54;82.55
62725;BME280;49026;52.600;4.694;2023-01-27T06:05:37;102913.50;;;2.54;82.29
62725;BME280;49026;52.600;4.694;2023-01-27T06:08:02;102909.06;;;2.50;82.40
62725;BME280;49026;52.600;4.694;2023-01-27T06:10:28;102899.44;;;2.46;82.48
62725;BME280;49026;52.600;4.694;2023-01-27T06:12:53;102911.66;;;2.50;82.40
62725;BME280;49026;52.600;4.694;2023-01-27T06:15:19;102913.50;;;2.54;83.04
62725;BME280;49026;52.600;4.694;2023-01-27T06:17:44;102917.88;;;2.57;83.10
62725;BME280;49026;52.600;4.694;2023-01-27T06:20:10;102905.81;;;2.57;83.49
62725;BME280;49026;52.600;4.694;2023-01-27T06:22:35;102917.88;;;2.57;82.53
62725;BME280;49026;52.600;4.694;2023-01-27T06:25:00;102911.91;;;2.59;83.09
62725;BME280;49026;52.600;4.694;2023-01-27T06:27:26;102910.16;;;2.58;83.18
62725;BME280;49026;52.600;4.694;2023-01-27T06:29:51;102908.31;;;2.54;83.27
62725;BME280;49026;52.600;4.694;2023-01-27T06:32:16;102902.97;;;2.48;82.40
62725;BME280;49026;52.600;4.694;2023-01-27T06:34:42;102902.88;;;2.45;82.09
62725;BME280;49026;52.600;4.694;2023-01-27T06:37:07;102896.78;;;2.43;81.83
62725;BME280;49026;52.600;4.694;2023-01-27T06:39:32;102893.13;;;2.36;82.15
62725;BME280;49026;52.600;4.694;2023-01-27T06:41:58;102900.69;;;2.29;82.79
62725;BME280;49026;52.600;4.694;2023-01-27T06:44:23;102897.00;;;2.20;82.54
62725;BME280;49026;52.600;4.694;2023-01-27T06:46:48;102900.38;;;2.16;82.76
62725;BME280;49026;52.600;4.694;2023-01-27T06:49:14;102898.38;;;2.06;83.25
62725;BME280;49026;52.600;4.694;2023-01-27T06:51:39;102899.94;;;2.01;83.78
62725;BME280;49026;52.600;4.694;2023-01-27T06:54:04;102911.91;;;1.96;84.33
62725;BME280;49026;52.600;4.694;2023-01-27T06:56:30;102905.75;;;1.92;83.89
62725;BME280;49026;52.600;4.694;2023-01-27T06:58:55;102916.81;;;1.87;83.95
62725;BME280;49026;52.600;4.694;2023-01-27T07:01:20;102919.25;;;1.82;84.16
62725;BME280;49026;52.600;4.694;2023-01-27T07:03:46;102921.00;;;1.81;84.15
62725;BME280;49026;52.600;4.694;2023-01-27T07:06:11;102932.97;;;1.78;83.98
62725;BME280;49026;52.600;4.694;2023-01-27T07:08:36;102938.88;;;1.72;84.62
62725;BME280;49026;52.600;4.694;2023-01-27T07:11:03;102937.91;;;1.70;84.99
62725;BME280;49026;52.600;4.694;2023-01-27T07:13:29;102950.22;;;1.76;85.13
62725;BME280;49026;52.600;4.694;2023-01-27T07:15:54;102946.75;;;1.77;84.95
62725;BME280;49026;52.600;4.694;2023-01-27T07:18:20;102953.66;;;1.76;85.12
62725;BME280;49026;52.600;4.694;2023-01-27T07:20:46;102955.28;;;1.73;85.25
62725;BME280;49026;52.600;4.694;2023-01-27T07:23:11;102957.84;;;1.71;85.21
62725;BME280;49026;52.600;4.694;2023-01-27T07:25:37;102956.06;;;1.70;85.76
62725;BME280;49026;52.600;4.694;2023-01-27T07:28:04;102956.06;;;1.70;85.08
62725;BME280;49026;52.600;4.694;2023-01-27T07:30:30;102964.75;;;1.71;85.10
62725;BME280;49026;52.600;4.694;2023-01-27T07:33:06;102963.16;;;1.76;86.11
62725;BME280;49026;52.600;4.694;2023-01-27T07:35:32;102960.69;;;1.79;86.02
62725;BME280;49026;52.600;4.694;2023-01-27T07:37:58;102965.94;;;1.82;86.12
62725;BME280;49026;52.600;4.694;2023-01-27T07:40:23;102966.94;;;1.87;85.94
62725;BME280;49026;52.600;4.694;2023-01-27T07:42:49;102969.59;;;1.89;85.74
62725;BME280;49026;52.600;4.694;2023-01-27T07:45:14;102974.88;;;1.92;86.30
62725;BME280;49026;52.600;4.694;2023-01-27T07:47:40;102969.00;;;1.97;86.20
62725;BME280;49026;52.600;4.694;2023-01-27T07:50:06;102963.88;;;1.99;86.04
62725;BME280;49026;52.600;4.694;2023-01-27T07:52:31;102977.00;;;2.05;86.22
62725;BME280;49026;52.600;4.694;2023-01-27T07:54:56;102972.84;;;2.12;86.12
62725;BME280;49026;52.600;4.694;2023-01-27T07:57:22;102985.06;;;2.14;86.25
62725;BME280;49026;52.600;4.694;2023-01-27T07:59:47;102985.41;;;2.27;86.17
62725;BME280;49026;52.600;4.694;2023-01-27T08:02:13;102985.13;;;2.48;86.68
62725;BME280;49026;52.600;4.694;2023-01-27T08:04:38;102985.09;;;2.78;86.63
62725;BME280;49026;52.600;4.694;2023-01-27T08:07:04;102978.59;;;2.95;86.02
62725;BME280;49026;52.600;4.694;2023-01-27T08:09:31;102993.31;;;2.95;84.97
62725;BME280;49026;52.600;4.694;2023-01-27T08:11:56;102987.09;;;2.88;84.35
62725;BME280;49026;52.600;4.694;2023-01-27T08:14:21;102988.69;;;2.83;84.27
62725;BME280;49026;52.600;4.694;2023-01-27T08:16:47;102986.84;;;2.79;84.19
62725;BME280;49026;52.600;4.694;2023-01-27T08:19:12;102991.06;;;2.75;83.62
62725;BME280;49026;52.600;4.694;2023-01-27T08:21:38;102997.16;;;2.76;84.28
62725;BME280;49026;52.600;4.694;2023-01-27T08:24:03;102996.38;;;2.80;84.60
62725;BME280;49026;52.600;4.694;2023-01-27T08:26:29;102995.69;;;2.86;84.61
62725;BME280;49026;52.600;4.694;2023-01-27T08:28:54;102999.16;;;2.86;84.70
62725;BME280;49026;52.600;4.694;2023-01-27T08:31:20;102996.56;;;2.86;84.69
62725;BME280;49026;52.600;4.694;2023-01-27T08:33:50;103003.56;;;2.90;85.25
62725;BME280;49026;52.600;4.694;2023-01-27T08:36:18;102997.59;;;2.93;84.64
62725;BME280;49026;52.600;4.694;2023-01-27T08:38:44;102994.19;;;2.95;84.92
62725;BME280;49026;52.600;4.694;2023-01-27T08:41:16;102999.53;;;3.02;84.33
62725;BME280;49026;52.600;4.694;2023-01-27T08:43:42;103003.19;;;3.08;84.71
62725;BME280;49026;52.600;4.694;2023-01-27T08:46:09;103006.81;;;3.15;84.03
62725;BME280;49026;52.600;4.694;2023-01-27T08:48:35;103006.91;;;3.18;84.36
62725;BME280;49026;52.600;4.694;2023-01-27T08:51:01;103005.13;;;3.17;84.29
62725;BME280;49026;52.600;4.694;2023-01-27T08:53:27;103007.69;;;3.15;82.34
62725;BME280;49026;52.600;4.694;2023-01-27T08:55:56;103010.28;;;3.15;81.89
62725;BME280;49026;52.600;4.694;2023-01-27T08:58:22;103009.44;;;3.17;82.39
62725;BME280;49026;52.600;4.694;2023-01-27T09:00:48;102992.09;;;3.15;80.15
62725;BME280;49026;52.600;4.694;2023-01-27T09:03:13;103011.28;;;3.21;81.49
62725;BME280;49026;52.600;4.694;2023-01-27T09:05:39;103012.22;;;3.23;80.15
62725;BME280;49026;52.600;4.694;2023-01-27T09:08:05;103008.75;;;3.24;79.20
62725;BME280;49026;52.600;4.694;2023-01-27T09:10:30;103015.69;;;3.23;77.95
62725;BME280;49026;52.600;4.694;2023-01-27T09:12:55;103010.56;;;3.26;77.43
62725;BME280;49026;52.600;4.694;2023-01-27T09:15:21;103006.38;;;3.31;76.66
62725;BME280;49026;52.600;4.694;2023-01-27T09:17:46;103005.59;;;3.36;76.97
62725;BME280;49026;52.600;4.694;2023-01-27T09:20:12;103017.03;;;3.44;79.26
62725;BME280;49026;52.600;4.694;2023-01-27T09:22:39;103021.41;;;3.45;78.11
62725;BME280;49026;52.600;4.694;2023-01-27T09:25:08;103019.69;;;3.45;76.04
62725;BME280;49026;52.600;4.694;2023-01-27T09:27:36;102992.88;;;3.46;76.82
62725;BME280;49026;52.600;4.694;2023-01-27T09:30:02;103018.03;;;3.49;76.29
62725;BME280;49026;52.600;4.694;2023-01-27T09:32:27;103012.06;;;3.51;76.68
62725;BME280;49026;52.600;4.694;2023-01-27T09:34:52;103022.53;;;3.55;74.09
62725;BME280;49026;52.600;4.694;2023-01-27T09:37:18;103016.53;;;3.59;75.72
62725;BME280;49026;52.600;4.694;2023-01-27T09:39:48;103022.72;;;3.64;75.54
62725;BME280;49026;52.600;4.694;2023-01-27T09:57:15;103022.81;;;3.67;73.41
62725;BME280;49026;52.600;4.694;2023-01-27T10:08:01;103036.81;;;3.74;74.06
62725;BME280;49026;52.600;4.694;2023-01-27T10:10:57;103037.72;;;3.76;75.06
62725;BME280;49026;52.600;4.694;2023-01-27T10:13:52;103043.00;;;3.79;74.63
62725;BME280;49026;52.600;4.694;2023-01-27T10:26:45;103043.31;;;3.91;74.18
62725;BME280;49026;52.600;4.694;2023-01-27T10:32:07;103038.31;;;4.00;74.82
62725;BME280;49026;52.600;4.694;2023-01-27T10:34:35;103034.97;;;4.06;76.33
62725;BME280;49026;52.600;4.694;2023-01-27T10:37:27;103040.34;;;4.14;75.31
62725;BME280;49026;52.600;4.694;2023-01-27T10:42:44;103028.50;;;4.28;77.69
62725;BME280;49026;52.600;4.694;2023-01-27T10:45:29;103026.88;;;4.33;78.35
62725;BME280;49026;52.600;4.694;2023-01-27T10:50:53;103022.75;;;4.43;78.36
62725;BME280;49026;52.600;4.694;2023-01-27T10:53:32;103024.50;;;4.45;77.95
62725;BME280;49026;52.600;4.694;2023-01-27T10:56:11;103028.84;;;4.45;76.30
62725;BME280;49026;52.600;4.694;2023-01-27T11:01:16;103028.81;;;4.43;75.03
62725;BME280;49026;52.600;4.694;2023-01-27T11:03:48;103028.81;;;4.43;77.83
62725;BME280;49026;52.600;4.694;2023-01-27T11:06:35;103026.16;;;4.40;75.98
62725;BME280;49026;52.600;4.694;2023-01-27T11:09:27;103036.56;;;4.40;75.53
62725;BME280;49026;52.600;4.694;2023-01-27T11:11:55;103028.88;;;4.47;77.78
62725;BME280;49026;52.600;4.694;2023-01-27T11:14:43;103027.19;;;4.49;75.56
62725;BME280;49026;52.600;4.694;2023-01-27T11:17:30;103027.19;;;4.49;74.73
62725;BME280;49026;52.600;4.694;2023-01-27T11:22:49;103027.31;;;4.55;76.05
62725;BME280;49026;52.600;4.694;2023-01-27T11:28:46;103034.13;;;4.48;74.04
62725;BME280;49026;52.600;4.694;2023-01-27T11:36:49;103025.00;;;4.27;71.50
62725;BME280;49026;52.600;4.694;2023-01-27T11:39:15;103028.44;;;4.25;72.43
62725;BME280;49026;52.600;4.694;2023-01-27T11:41:51;103025.00;;;4.26;74.44
62725;BME280;49026;52.600;4.694;2023-01-27T11:44:21;103025.00;;;4.26;74.22
62725;BME280;49026;52.600;4.694;2023-01-27T11:46:48;103027.69;;;4.31;76.14
62725;BME280;49026;52.600;4.694;2023-01-27T11:49:30;103009.69;;;4.41;77.07
62725;BME280;49026;52.600;4.694;2023-01-27T11:52:09;103018.47;;;4.47;75.40
62725;BME280;49026;52.600;4.694;2023-01-27T11:54:39;103023.53;;;4.40;72.77
62725;BME280;49026;52.600;4.694;2023-01-27T11:57:16;103019.22;;;4.41;74.31
62725;BME280;49026;52.600;4.694;2023-01-27T11:59:44;103006.19;;;4.39;72.96
62725;BME280;49026;52.600;4.694;2023-01-27T12:05:00;103005.47;;;4.47;75.24
62725;BME280;49026;52.600;4.694;2023-01-27T12:07:37;103003.72;;;4.47;74.80
62725;BME280;49026;52.600;4.694;2023-01-27T12:12:45;102996.09;;;4.56;73.44
62725;BME280;49026;52.600;4.694;2023-01-27T12:15:14;102982.47;;;4.70;76.88
62725;BME280;49026;52.600;4.694;2023-01-27T12:17:42;102989.66;;;4.83;77.25
62725;BME280;49026;52.600;4.694;2023-01-27T12:22:52;102984.53;;;4.89;76.85
62725;BME280;49026;52.600;4.694;2023-01-27T12:25:25;102982.88;;;4.91;78.65
62725;BME280;49026;52.600;4.694;2023-01-27T12:27:56;102974.19;;;4.92;78.20
62725;BME280;49026;52.600;4.694;2023-01-27T12:30:26;102971.50;;;4.89;76.51
62725;BME280;49026;52.600;4.694;2023-01-27T12:32:53;102970.59;;;4.86;75.75
62725;BME280;49026;52.600;4.694;2023-01-27T12:35:30;102973.19;;;4.86;77.65
62725;BME280;49026;52.600;4.694;2023-01-27T12:38:15;102961.88;;;4.83;77.74
62725;BME280;49026;52.600;4.694;2023-01-27T12:40:44;102967.09;;;4.83;77.83
62725;BME280;49026;52.600;4.694;2023-01-27T12:43:15;102956.53;;;4.77;75.44
62725;BME280;49026;52.600;4.694;2023-01-27T12:45:42;102951.25;;;4.71;75.30
62725;BME280;49026;52.600;4.694;2023-01-27T12:50:38;102952.06;;;4.69;79.14
62725;BME280;49026;52.600;4.694;2023-01-27T12:53:12;102954.53;;;4.62;75.72
62725;BME280;49026;52.600;4.694;2023-01-27T12:56:26;102954.41;;;4.55;74.26
62725;BME280;49026;52.600;4.694;2023-01-27T13:01:23;102957.78;;;4.51;75.09
62725;BME280;49026;52.600;4.694;2023-01-27T13:03:53;102957.78;;;4.51;76.20
62725;BME280;49026;52.600;4.694;2023-01-27T13:06:26;102968.19;;;4.51;74.69
62725;BME280;49026;52.600;4.694;2023-01-27T13:08:53;102953.47;;;4.51;75.87
62725;BME280;49026;52.600;4.694;2023-01-27T13:11:30;102957.78;;;4.51;74.99
62725;BME280;49026;52.600;4.694;2023-01-27T13:13:57;102962.94;;;4.48;74.44
62725;BME280;49026;52.600;4.694;2023-01-27T13:16:27;102963.81;;;4.47;76.31
62725;BME280;49026;52.600;4.694;2023-01-27T13:18:56;102962.00;;;4.44;77.72
62725;BME280;49026;52.600;4.694;2023-01-27T13:21:26;102961.03;;;4.39;75.10
62725;BME280;49026;52.600;4.694;2023-01-27T13:23:54;102966.28;;;4.40;75.80
62725;BME280;49026;52.600;4.694;2023-01-27T13:26:21;102963.59;;;4.37;77.28
62725;BME280;49026;52.600;4.694;2023-01-27T13:29:00;102961.81;;;4.33;78.16
62725;BME280;49026;52.600;4.694;2023-01-27T13:31:57;102967.84;;;4.32;76.96
62725;BME280;49026;52.600;4.694;2023-01-27T13:34:42;102960.91;;;4.31;76.70
62725;BME280;49026;52.600;4.694;2023-01-27T13:42:52;102963.53;;;4.34;78.00
62725;BME280;49026;52.600;4.694;2023-01-27T13:45:24;102969.69;;;4.36;78.26
62725;BME280;49026;52.600;4.694;2023-01-27T13:50:35;102974.84;;;4.35;80.91
62725;BME280;49026;52.600;4.694;2023-01-27T13:53:02;102974.59;;;4.22;76.70
62725;BME280;49026;52.600;4.694;2023-01-27T13:55:55;102980.59;;;4.18;77.57
62725;BME280;49026;52.600;4.694;2023-01-27T14:06:44;102979.53;;;4.10;80.27
62725;BME280;49026;52.600;4.694;2023-01-27T14:09:45;102983.03;;;4.11;80.55
62725;BME280;49026;52.600;4.694;2023-01-27T14:17:28;102970.72;;;4.03;79.99
62725;BME280;49026;52.600;4.694;2023-01-27T14:20:25;102971.53;;;4.01;79.29
62725;BME280;49026;52.600;4.694;2023-01-27T14:30:55;102980.25;;;4.01;80.24
62725;BME280;49026;52.600;4.694;2023-01-27T14:33:34;102982.78;;;3.98;77.91
62725;BME280;49026;52.600;4.694;2023-01-27T14:36:19;102981.00;;;3.97;78.87
62725;BME280;49026;52.600;4.694;2023-01-27T14:39:01;102971.38;;;3.93;79.23
62725;BME280;49026;52.600;4.694;2023-01-27T14:49:30;102975.63;;;3.88;78.37
62725;BME280;49026;52.600;4.694;2023-01-27T14:57:20;102976.38;;;3.84;77.65
62725;BME280;49026;52.600;4.694;2023-01-27T15:02:41;102979.91;;;3.87;79.71
62725;BME280;49026;52.600;4.694;2023-01-27T15:05:19;102980.03;;;3.92;79.84
62725;BME280;49026;52.600;4.694;2023-01-27T15:08:01;102984.31;;;3.90;79.19
62725;BME280;49026;52.600;4.694;2023-01-27T15:10:32;102978.19;;;3.86;78.84
62725;BME280;49026;52.600;4.694;2023-01-27T15:21:20;102991.16;;;3.85;81.09
62725;BME280;49026;52.600;4.694;2023-01-27T15:26:37;102992.84;;;3.83;80.39
62725;BME280;49026;52.600;4.694;2023-01-27T15:29:03;102991.91;;;3.81;80.20
62725;BME280;49026;52.600;4.694;2023-01-27T15:31:30;102994.50;;;3.81;80.48
62725;BME280;49026;52.600;4.694;2023-01-27T15:41:32;102993.59;;;3.79;81.04